createdAt,value
2022-12-08T00:01:32.852Z,79.78
2022-12-08T00:04:02.448Z,79.68
2022-12-08T00:06:59.034Z,79.76
2022-12-08T00:09:26.902Z,79.69
2022-12-08T00:12:00.427Z,79.71
2022-12-08T00:14:34.203Z,79.52
2022-12-08T00:17:03.621Z,79.54
2022-12-08T00:19:32.197Z,79.60
2022-12-08T00:22:00.549Z,79.46
2022-12-08T00:24:35.089Z,79.54
2022-12-08T00:27:02.954Z,79.55
2022-12-08T00:29:31.007Z,79.45
2022-12-08T00:31:58.799Z,79.43
2022-12-08T00:34:26.554Z,79.43
2022-12-08T00:36:54.791Z,79.35
2022-12-08T00:39:22.995Z,79.28
2022-12-08T00:42:09.226Z,79.12
2022-12-08T00:44:37.671Z,79.09
2022-12-08T00:47:05.489Z,79.31
2022-12-08T00:49:33.361Z,79.26
2022-12-08T00:52:01.710Z,79.25
2022-12-08T00:54:29.593Z,79.12
2022-12-08T00:56:57.284Z,79.07
2022-12-08T00:59:25.676Z,79.02
2022-12-08T01:04:56.477Z,78.76
2022-12-08T01:07:59.193Z,78.52
2022-12-08T01:16:03.394Z,78.46
2022-12-08T01:18:36.492Z,78.55
2022-12-08T01:21:08.416Z,78.24
2022-12-08T01:23:37.357Z,78.41
2022-12-08T01:26:09.580Z,78.33
2022-12-08T01:28:39.355Z,78.03
2022-12-08T01:31:13.822Z,77.85
2022-12-08T01:33:43.689Z,77.77
2022-12-08T01:36:22.263Z,77.71
2022-12-08T01:38:52.579Z,77.65
2022-12-08T01:41:23.525Z,77.72
2022-12-08T01:43:51.236Z,77.77
2022-12-08T01:46:19.547Z,77.65
2022-12-08T01:48:47.437Z,77.67
2022-12-08T01:51:15.434Z,77.66
2022-12-08T01:53:43.622Z,77.55
2022-12-08T01:56:19.274Z,77.52
2022-12-08T01:58:50.786Z,77.51
2022-12-08T02:01:18.621Z,77.33
2022-12-08T02:03:58.448Z,77.43
2022-12-08T02:06:29.675Z,77.31
2022-12-08T02:08:59.612Z,77.35
2022-12-08T02:11:27.465Z,77.31
2022-12-08T02:13:56.234Z,77.29
2022-12-08T02:16:52.496Z,77.16
2022-12-08T02:19:45.006Z,77.04
2022-12-08T02:22:40.550Z,77.28
2022-12-08T02:25:21.031Z,77.25
2022-12-08T02:28:32.707Z,77.02
2022-12-08T02:31:31.639Z,77.03
2022-12-08T02:34:13.817Z,76.91
2022-12-08T02:37:19.113Z,77.10
2022-12-08T02:40:03.107Z,77.02
2022-12-08T02:42:47.283Z,76.93
2022-12-08T02:45:22.926Z,76.77
2022-12-08T02:47:52.356Z,76.68
2022-12-08T02:50:20.693Z,76.90
2022-12-08T02:52:48.533Z,76.78
2022-12-08T02:55:39.692Z,76.91
2022-12-08T02:58:35.562Z,77.06
2022-12-08T03:01:09.250Z,77.07
2022-12-08T03:04:08.743Z,77.18
2022-12-08T03:07:06.813Z,77.31
2022-12-08T03:09:47.228Z,77.26
2022-12-08T03:12:43.526Z,77.13
2022-12-08T03:15:15.467Z,77.31
2022-12-08T03:17:47.293Z,77.42
2022-12-08T03:20:21.567Z,77.50
2022-12-08T03:22:53.460Z,77.45
2022-12-08T03:25:23.309Z,77.51
2022-12-08T03:27:52.375Z,77.59
2022-12-08T03:30:20.275Z,77.45
2022-12-08T03:32:52.045Z,77.39
2022-12-08T03:35:24.722Z,77.31
2022-12-08T03:37:52.519Z,77.18
2022-12-08T03:40:21.010Z,77.12
2022-12-08T03:42:48.967Z,77.02
2022-12-08T03:45:16.863Z,77.13
2022-12-08T03:47:44.560Z,77.10
2022-12-08T03:50:12.377Z,77.04
2022-12-08T03:52:40.277Z,77.10
2022-12-08T03:55:08.231Z,77.09
2022-12-08T03:57:36.278Z,77.06
2022-12-08T04:00:09.177Z,77.31
2022-12-08T04:02:37.090Z,77.18
2022-12-08T04:05:05.185Z,77.30
2022-12-08T04:07:33.365Z,77.43
2022-12-08T04:10:01.601Z,77.36
2022-12-08T04:12:29.670Z,77.43
2022-12-08T04:14:57.399Z,77.43
2022-12-08T04:17:25.198Z,77.76
2022-12-08T04:19:52.895Z,77.66
2022-12-08T04:22:20.704Z,77.93
2022-12-08T04:24:48.702Z,77.87
2022-12-08T04:27:16.456Z,78.02
2022-12-08T04:29:44.357Z,77.92
2022-12-08T04:32:12.240Z,77.87
2022-12-08T04:34:39.954Z,77.98
2022-12-08T04:37:09.871Z,77.93
2022-12-08T04:39:40.422Z,77.94
2022-12-08T04:42:08.490Z,78.03
2022-12-08T04:44:36.263Z,78.13
2022-12-08T04:47:04.152Z,78.19
2022-12-08T04:49:32.151Z,78.23
2022-12-08T04:52:00.006Z,78.39
2022-12-08T04:54:28.310Z,78.37
2022-12-08T04:56:55.968Z,78.38
2022-12-08T04:59:23.901Z,78.41
2022-12-08T05:01:51.934Z,78.54
2022-12-08T05:04:19.796Z,78.62
2022-12-08T05:06:47.645Z,78.64
2022-12-08T05:09:15.446Z,78.67
2022-12-08T05:11:48.650Z,78.71
2022-12-08T05:14:18.751Z,78.97
2022-12-08T05:16:47.067Z,79.00
2022-12-08T05:19:15.560Z,78.98
2022-12-08T05:21:43.775Z,78.81
2022-12-08T05:24:11.512Z,78.88
2022-12-08T05:26:39.270Z,79.01
2022-12-08T05:29:07.166Z,78.95
2022-12-08T05:31:35.080Z,78.89
2022-12-08T05:34:03.623Z,78.95
2022-12-08T05:36:31.793Z,78.96
2022-12-08T05:38:59.669Z,79.13
2022-12-08T05:41:27.349Z,79.09
2022-12-08T05:43:55.717Z,79.24
2022-12-08T05:46:28.264Z,79.18
2022-12-08T05:48:56.297Z,79.39
2022-12-08T05:51:24.425Z,79.28
2022-12-08T05:53:53.000Z,79.50
2022-12-08T05:56:21.538Z,79.39
2022-12-08T05:58:49.803Z,79.45
2022-12-08T06:01:27.557Z,79.61
2022-12-08T06:03:57.302Z,79.40
2022-12-08T06:06:25.599Z,79.67
2022-12-08T06:08:54.320Z,79.74
2022-12-08T06:11:27.309Z,79.61
2022-12-08T06:13:56.889Z,79.65
2022-12-08T06:16:26.377Z,79.57
2022-12-08T06:18:56.161Z,79.79
2022-12-08T06:21:25.107Z,79.93
2022-12-08T06:23:54.141Z,79.92
2022-12-08T06:26:22.720Z,79.81
2022-12-08T06:28:52.209Z,79.87
2022-12-08T06:31:22.533Z,79.88
2022-12-08T06:33:50.943Z,79.82
2022-12-08T06:36:20.801Z,79.74
2022-12-08T06:38:49.179Z,79.87
2022-12-08T06:41:17.748Z,79.93
2022-12-08T06:43:45.608Z,79.85
2022-12-08T06:46:16.549Z,79.77
2022-12-08T06:48:44.716Z,79.86
2022-12-08T06:51:18.367Z,79.95
2022-12-08T06:53:47.302Z,79.85
2022-12-08T06:56:16.047Z,80.04
2022-12-08T06:58:48.962Z,80.00
2022-12-08T07:01:25.578Z,79.98
2022-12-08T07:03:53.693Z,79.89
2022-12-08T07:06:25.013Z,79.85
2022-12-08T07:08:53.178Z,80.05
2022-12-08T07:11:22.416Z,79.91
2022-12-08T07:13:51.211Z,79.93
2022-12-08T07:16:19.343Z,79.90
2022-12-08T07:18:47.431Z,79.94
2022-12-08T07:21:18.184Z,80.05
2022-12-08T07:23:50.201Z,79.96
2022-12-08T07:26:22.217Z,80.09
2022-12-08T07:28:50.050Z,80.03
2022-12-08T07:31:24.346Z,79.96
2022-12-08T07:33:53.107Z,80.13
2022-12-08T07:36:21.716Z,80.16
2022-12-08T07:38:50.453Z,80.23
2022-12-08T07:41:23.537Z,80.30
2022-12-08T07:43:53.692Z,80.20
2022-12-08T07:46:26.303Z,79.96
2022-12-08T07:48:57.217Z,80.09
2022-12-08T07:51:25.316Z,79.90
2022-12-08T07:53:54.503Z,79.91
2022-12-08T07:56:23.559Z,79.91
2022-12-08T07:58:51.563Z,79.69
2022-12-08T08:01:28.029Z,79.73
2022-12-08T08:03:58.366Z,79.75
2022-12-08T08:06:26.131Z,79.72
2022-12-08T08:08:54.678Z,79.64
2022-12-08T08:11:25.075Z,79.47
2022-12-08T08:13:57.835Z,79.37
2022-12-08T08:16:25.954Z,79.54
2022-12-08T08:18:55.268Z,79.38
2022-12-08T08:24:14.363Z,79.25
2022-12-08T08:26:42.188Z,79.14
2022-12-08T08:29:10.070Z,79.06
2022-12-08T08:31:38.196Z,78.89
2022-12-08T08:34:06.608Z,78.69
2022-12-08T08:36:35.641Z,78.79
2022-12-08T08:39:04.644Z,78.39
2022-12-08T08:41:32.690Z,78.10
2022-12-08T08:44:00.521Z,77.93
2022-12-08T08:46:28.533Z,77.36
2022-12-08T08:48:56.430Z,76.98
2022-12-08T08:51:24.583Z,76.86
2022-12-08T08:53:52.550Z,76.56
2022-12-08T08:56:20.633Z,75.97
2022-12-08T08:58:50.195Z,75.82
2022-12-08T09:01:27.452Z,74.63
2022-12-08T09:03:56.668Z,75.16
2022-12-08T09:06:25.003Z,74.98
2022-12-08T09:08:53.021Z,74.78
2022-12-08T09:11:20.860Z,74.58
2022-12-08T09:13:49.917Z,74.28
2022-12-08T09:16:18.970Z,73.49
2022-12-08T09:18:50.571Z,72.71
2022-12-08T09:21:23.032Z,72.49
2022-12-08T09:23:56.027Z,72.37
2022-12-08T09:26:25.333Z,72.37
2022-12-08T09:28:55.847Z,71.16
2022-12-08T09:31:27.648Z,71.12
2022-12-08T09:33:55.720Z,70.61
2022-12-08T09:36:23.651Z,69.99
2022-12-08T09:38:53.755Z,69.76
2022-12-08T09:41:40.324Z,70.23
2022-12-08T09:44:47.423Z,69.42
2022-12-08T09:47:42.663Z,68.22
2022-12-08T09:50:36.874Z,68.91
2022-12-08T09:53:35.846Z,68.66
2022-12-08T09:56:12.769Z,68.91
2022-12-08T09:58:52.794Z,68.69
2022-12-08T10:01:32.231Z,68.17
2022-12-08T10:04:01.628Z,68.78
2022-12-08T10:06:42.099Z,68.36
2022-12-08T10:09:32.340Z,68.39
2022-12-08T10:12:21.294Z,68.65
2022-12-08T10:15:07.051Z,68.90
2022-12-08T10:17:40.982Z,67.74
2022-12-08T10:20:20.995Z,68.07
2022-12-08T10:23:04.450Z,67.18
2022-12-08T10:25:39.372Z,67.62
2022-12-08T10:28:08.827Z,67.64
2022-12-08T10:30:36.883Z,67.30
2022-12-08T10:33:04.803Z,66.45
2022-12-08T10:35:58.480Z,66.84
2022-12-08T10:38:31.323Z,67.11
2022-12-08T10:41:13.638Z,66.64
2022-12-08T10:43:49.104Z,66.52
2022-12-08T10:46:28.553Z,67.10
2022-12-08T10:49:25.091Z,66.15
2022-12-08T10:51:55.562Z,66.56
2022-12-08T10:54:33.510Z,66.01
2022-12-08T10:57:01.604Z,66.53
2022-12-08T10:59:29.648Z,66.22
2022-12-08T11:01:58.813Z,66.47
2022-12-08T11:04:40.900Z,66.68
2022-12-08T11:07:11.142Z,66.02
2022-12-08T11:09:48.840Z,66.21
2022-12-08T11:12:22.202Z,66.11
2022-12-08T11:14:56.494Z,65.40
2022-12-08T11:17:27.047Z,65.50
2022-12-08T11:19:58.121Z,65.17
2022-12-08T11:22:47.812Z,65.37
2022-12-08T11:25:22.724Z,65.62
2022-12-08T11:27:54.266Z,65.04
2022-12-08T11:30:29.371Z,65.21
2022-12-08T11:33:23.695Z,65.42
2022-12-08T11:36:04.889Z,65.23
2022-12-08T11:38:35.630Z,64.55
2022-12-08T11:41:22.202Z,64.74
2022-12-08T11:44:03.527Z,64.67
2022-12-08T11:46:47.882Z,64.90
2022-12-08T11:49:18.311Z,64.83
2022-12-08T11:52:22.410Z,64.68
2022-12-08T11:54:59.527Z,65.07
2022-12-08T11:57:29.744Z,64.36
2022-12-08T11:59:58.792Z,64.16
2022-12-08T12:02:48.493Z,63.70
2022-12-08T12:06:23.930Z,63.32
2022-12-08T12:09:35.226Z,64.11
2022-12-08T12:12:51.479Z,64.39
2022-12-08T12:19:22.099Z,64.55
2022-12-08T12:21:55.551Z,64.67
2022-12-08T12:24:54.466Z,64.98
2022-12-08T12:27:41.515Z,64.87
2022-12-08T12:30:27.918Z,64.82
2022-12-08T12:33:12.146Z,64.74
2022-12-08T12:36:11.539Z,64.80
2022-12-08T12:39:02.233Z,64.56
2022-12-08T12:41:47.022Z,64.22
2022-12-08T12:44:14.989Z,63.93
2022-12-08T12:47:13.089Z,64.28
2022-12-08T12:53:28.049Z,64.39
2022-12-08T12:56:50.565Z,64.71
2022-12-08T13:00:28.222Z,64.50
2022-12-08T13:03:01.970Z,64.92
2022-12-08T13:05:47.906Z,65.06
2022-12-08T13:08:25.024Z,65.07
2022-12-08T13:18:45.693Z,64.86
2022-12-08T13:21:53.959Z,65.13
2022-12-08T13:25:47.054Z,65.50
2022-12-08T13:28:35.021Z,65.37
2022-12-08T13:31:48.555Z,65.01
2022-12-08T13:38:16.499Z,63.15
2022-12-08T14:20:04.604Z,63.18
2022-12-08T14:23:26.088Z,63.87
2022-12-08T14:26:38.134Z,64.14
2022-12-08T14:29:17.865Z,64.12
2022-12-08T14:47:52.983Z,65.81
2022-12-08T14:51:09.600Z,65.95
2022-12-08T14:54:09.999Z,66.33
2022-12-08T15:11:51.804Z,67.19
2022-12-08T15:15:14.328Z,67.48
2022-12-08T15:21:05.533Z,67.79
2022-12-08T15:24:14.839Z,68.06
2022-12-08T16:07:22.997Z,69.46
2022-12-08T16:09:51.585Z,69.17
2022-12-08T16:15:59.077Z,69.29
2022-12-08T16:18:28.052Z,69.23
2022-12-08T16:23:46.150Z,69.08
2022-12-08T16:26:44.697Z,69.12
2022-12-08T16:29:13.024Z,68.95
2022-12-08T16:31:40.909Z,68.93
2022-12-08T16:34:08.666Z,68.86
2022-12-08T16:36:36.945Z,69.16
2022-12-08T16:39:04.678Z,69.00
2022-12-08T16:41:51.078Z,68.90
2022-12-08T16:44:18.928Z,69.02
2022-12-08T16:46:46.695Z,68.72
2022-12-08T16:49:15.577Z,68.97
2022-12-08T16:51:44.028Z,68.80
2022-12-08T16:54:12.036Z,68.65
2022-12-08T16:56:39.724Z,68.56
2022-12-08T16:59:07.877Z,68.81
2022-12-08T17:01:36.416Z,68.82
2022-12-08T17:06:53.113Z,68.66
2022-12-08T17:09:20.916Z,68.99
2022-12-08T17:11:48.771Z,69.06
2022-12-08T17:14:17.116Z,69.22
2022-12-08T17:16:45.646Z,69.57
2022-12-08T17:19:15.353Z,69.79
2022-12-08T17:21:44.693Z,69.96
2022-12-08T17:24:15.828Z,70.06
2022-12-08T17:26:46.809Z,70.38
2022-12-08T17:29:14.537Z,70.65
2022-12-08T17:31:42.355Z,70.75
2022-12-08T17:34:11.197Z,70.85
2022-12-08T17:36:38.976Z,71.23
2022-12-08T17:39:11.018Z,71.39
2022-12-08T17:41:43.059Z,71.35
2022-12-08T17:44:16.094Z,71.42
2022-12-08T17:46:49.128Z,71.57
2022-12-08T17:49:23.579Z,71.69
2022-12-08T17:51:54.832Z,71.71
2022-12-08T17:54:22.881Z,71.98
2022-12-08T17:56:52.023Z,71.95
2022-12-08T17:59:20.233Z,71.97
2022-12-08T18:01:48.255Z,72.19
2022-12-08T18:04:16.171Z,72.23
2022-12-08T18:06:44.008Z,72.30
2022-12-08T18:09:11.928Z,72.35
2022-12-08T18:11:40.522Z,72.39
2022-12-08T18:14:11.763Z,72.50
2022-12-08T18:16:42.600Z,72.59
2022-12-08T18:19:13.079Z,72.64
2022-12-08T18:21:42.184Z,72.65
2022-12-08T18:24:17.184Z,72.92
2022-12-08T18:26:45.366Z,72.82
2022-12-08T18:29:13.224Z,72.99
2022-12-08T18:31:40.877Z,72.90
2022-12-08T18:34:08.849Z,72.98
2022-12-08T18:36:36.646Z,73.01
2022-12-08T18:39:10.543Z,73.01
2022-12-08T18:41:38.940Z,73.05
2022-12-08T18:44:06.780Z,73.16
2022-12-08T18:46:34.521Z,73.17
2022-12-08T18:49:02.357Z,73.18
2022-12-08T18:51:30.642Z,73.21
2022-12-08T18:53:58.469Z,73.10
2022-12-08T18:56:30.364Z,73.39
2022-12-08T18:59:03.585Z,73.35
2022-12-08T19:01:33.839Z,73.37
2022-12-08T19:06:52.877Z,73.41
2022-12-08T19:09:20.852Z,73.50
2022-12-08T19:11:48.976Z,73.65
2022-12-08T19:14:19.204Z,73.65
2022-12-08T19:16:50.993Z,73.51
2022-12-08T19:19:19.089Z,73.52
2022-12-08T19:21:46.920Z,73.60
2022-12-08T19:24:14.804Z,73.70
2022-12-08T19:26:43.024Z,73.51
2022-12-08T19:29:11.874Z,73.63
2022-12-08T19:31:40.642Z,73.45
2022-12-08T19:34:10.887Z,73.68
2022-12-08T19:36:42.580Z,73.57
2022-12-08T19:39:35.129Z,73.55
2022-12-08T19:42:22.146Z,73.47
2022-12-08T19:44:52.777Z,73.53
2022-12-08T19:47:22.129Z,73.62
2022-12-08T19:49:50.570Z,73.48
2022-12-08T19:52:18.948Z,73.53
2022-12-08T19:54:47.174Z,73.61
2022-12-08T19:57:16.048Z,73.52
2022-12-08T19:59:43.865Z,73.48
2022-12-08T20:02:11.689Z,73.44
2022-12-08T20:04:39.549Z,73.38
2022-12-08T20:07:07.538Z,73.24
2022-12-08T20:09:35.377Z,73.25
2022-12-08T20:12:03.504Z,73.23
2022-12-08T20:14:31.430Z,73.13
2022-12-08T20:16:59.236Z,73.00
2022-12-08T20:19:27.187Z,73.13
2022-12-08T20:21:57.567Z,73.02
2022-12-08T20:24:25.365Z,72.99
2022-12-08T20:26:53.177Z,72.88
2022-12-08T20:29:21.257Z,72.84
2022-12-08T20:31:49.017Z,73.16
2022-12-08T20:34:18.967Z,72.95
2022-12-08T20:36:47.196Z,73.02
2022-12-08T20:39:18.046Z,72.81
2022-12-08T20:41:46.534Z,72.77
2022-12-08T20:44:14.989Z,72.77
2022-12-08T20:46:47.720Z,72.77
2022-12-08T20:49:17.611Z,72.77
2022-12-08T20:51:46.143Z,72.83
2022-12-08T20:54:14.154Z,72.78
2022-12-08T20:56:47.913Z,72.81
2022-12-08T20:59:18.314Z,72.77
2022-12-08T21:01:46.734Z,72.77
2022-12-08T21:04:15.976Z,72.80
2022-12-08T21:06:43.778Z,72.96
2022-12-08T21:09:11.993Z,72.99
2022-12-08T21:11:40.134Z,72.92
2022-12-08T21:14:07.980Z,73.11
2022-12-08T21:16:36.566Z,72.90
2022-12-08T21:19:04.652Z,73.04
2022-12-08T21:21:32.605Z,72.97
2022-12-08T21:24:01.435Z,73.07
2022-12-08T21:26:29.431Z,72.91
2022-12-08T21:28:58.927Z,72.88
2022-12-08T21:31:29.319Z,72.89
2022-12-08T21:33:58.513Z,72.98
2022-12-08T21:36:26.339Z,72.84
2022-12-08T21:38:55.296Z,72.91
2022-12-08T21:41:42.581Z,73.05
2022-12-08T21:44:15.242Z,73.07
2022-12-08T21:46:43.171Z,72.92
2022-12-08T21:49:11.390Z,73.03
2022-12-08T21:51:42.272Z,72.93
2022-12-08T21:54:18.627Z,73.07
2022-12-08T21:56:49.393Z,72.93
2022-12-08T21:59:18.163Z,73.06
2022-12-08T22:01:46.138Z,72.85
2022-12-08T22:04:18.210Z,73.07
2022-12-08T22:06:46.340Z,73.01
2022-12-08T22:09:15.318Z,73.00
2022-12-08T22:11:44.072Z,73.01
2022-12-08T22:14:14.826Z,72.89
2022-12-08T22:16:44.076Z,72.92
2022-12-08T22:19:12.670Z,73.03
2022-12-08T22:21:40.880Z,72.95
2022-12-08T22:24:09.037Z,73.11
2022-12-08T22:26:37.118Z,73.01
2022-12-08T22:29:05.216Z,73.06
2022-12-08T22:31:33.115Z,72.86
2022-12-08T22:34:01.562Z,72.81
2022-12-08T22:36:29.941Z,73.11
2022-12-08T22:38:57.712Z,72.91
2022-12-08T22:41:25.648Z,73.04
2022-12-08T22:43:53.476Z,73.16
2022-12-08T22:46:24.009Z,73.11
2022-12-08T22:48:54.166Z,73.17
2022-12-08T22:51:22.055Z,73.06
2022-12-08T22:53:50.458Z,73.12
2022-12-08T22:56:20.709Z,73.19
2022-12-08T22:58:48.775Z,73.14
2022-12-08T23:01:27.410Z,73.34
2022-12-08T23:03:55.786Z,73.31
2022-12-08T23:06:27.257Z,73.28
2022-12-08T23:08:55.764Z,73.11
2022-12-08T23:11:27.885Z,73.26
2022-12-08T23:13:57.570Z,73.12
2022-12-08T23:16:26.751Z,73.24
2022-12-08T23:18:55.013Z,73.14
2022-12-08T23:21:23.114Z,73.24
2022-12-08T23:23:51.132Z,73.25
2022-12-08T23:26:26.913Z,73.16
2022-12-08T23:29:51.060Z,73.28
2022-12-08T23:32:37.898Z,73.24
2022-12-08T23:35:07.144Z,73.28
2022-12-08T23:37:35.323Z,73.39
2022-12-08T23:40:04.770Z,73.34
2022-12-08T23:42:33.541Z,73.40
2022-12-08T23:45:01.872Z,73.35
2022-12-08T23:47:30.283Z,73.21
2022-12-08T23:49:58.614Z,73.25
2022-12-08T23:52:26.780Z,73.33
2022-12-08T23:54:54.817Z,73.46
2022-12-08T23:57:23.018Z,73.54
2022-12-08T23:59:50.923Z,73.44
